createdAt,value
2022-09-12T00:04:48.713Z,4.80
2022-09-12T00:09:52.916Z,4.07
2022-09-12T00:14:56.653Z,3.97
2022-09-12T00:19:59.740Z,4.95
2022-09-12T00:25:04.441Z,5.37
2022-09-12T00:30:07.709Z,10.73
2022-09-12T00:35:10.746Z,5.70
2022-09-12T00:40:15.143Z,5.30
2022-09-12T00:45:22.224Z,5.88
2022-09-12T00:50:25.875Z,10.20
2022-09-12T00:55:33.535Z,6.03
2022-09-12T01:00:36.279Z,4.90
2022-09-12T01:05:41.121Z,5.90
2022-09-12T01:10:45.289Z,7.13
2022-09-12T01:15:47.993Z,4.93
2022-09-12T01:20:55.353Z,6.30
2022-09-12T01:26:13.042Z,7.32
2022-09-12T01:31:19.698Z,5.53
2022-09-12T01:36:30.611Z,4.85
2022-09-12T01:41:41.200Z,3.55
2022-09-12T01:46:49.126Z,3.78
2022-09-12T01:51:56.963Z,3.13
2022-09-12T01:57:01.576Z,4.32
2022-09-12T02:02:07.415Z,6.18
2022-09-12T02:07:20.908Z,5.85
2022-09-12T02:12:26.466Z,7.15
2022-09-12T02:17:31.337Z,4.93
2022-09-12T02:22:36.829Z,7.60
2022-09-12T02:27:41.469Z,5.65
2022-09-12T02:32:51.097Z,6.53
2022-09-12T02:37:58.367Z,8.82
2022-09-12T02:43:01.274Z,6.60
2022-09-12T02:48:07.045Z,7.45
2022-09-12T02:53:10.680Z,5.40
2022-09-12T02:58:17.311Z,4.13
2022-09-12T03:03:33.281Z,4.65
2022-09-12T03:08:47.849Z,4.07
2022-09-12T03:13:54.264Z,5.20
2022-09-12T03:19:03.026Z,3.28
2022-09-12T03:24:11.164Z,3.42
2022-09-12T03:29:14.322Z,5.32
2022-09-12T03:34:18.348Z,3.93
2022-09-12T03:44:24.124Z,4.13
2022-09-12T03:49:28.085Z,3.53
2022-09-12T03:54:30.782Z,3.83
2022-09-12T03:59:33.889Z,3.78
2022-09-12T04:04:38.026Z,5.77
2022-09-12T04:09:41.031Z,4.07
2022-09-12T04:14:43.793Z,5.07
2022-09-12T04:19:48.064Z,5.03
2022-09-12T04:24:50.690Z,4.57
2022-09-12T04:29:55.005Z,3.55
2022-09-12T04:34:59.392Z,4.53
2022-09-12T04:40:02.057Z,5.07
2022-09-12T04:45:06.293Z,5.30
2022-09-12T04:55:12.947Z,3.60
2022-09-12T05:00:17.240Z,5.05
2022-09-12T05:05:19.944Z,5.55
2022-09-12T05:10:24.470Z,9.57
2022-09-12T05:15:27.155Z,3.75
2022-09-12T05:20:29.797Z,4.10
2022-09-12T05:25:33.890Z,9.35
2022-09-12T05:30:36.497Z,4.28
2022-09-12T05:35:39.275Z,3.72
2022-09-12T05:40:46.285Z,4.70
2022-09-12T05:50:51.354Z,5.85
2022-09-12T05:56:04.094Z,10.00
2022-09-12T06:01:08.123Z,4.78
2022-09-12T06:06:13.568Z,5.63
2022-09-12T06:11:18.239Z,6.47
2022-09-12T06:16:22.391Z,6.43
2022-09-12T06:21:26.530Z,6.00
2022-09-12T06:26:31.075Z,5.63
2022-09-12T06:31:34.462Z,5.32
2022-09-12T06:36:38.631Z,4.20
2022-09-12T06:41:44.216Z,4.05
2022-09-12T06:46:47.212Z,3.33
2022-09-12T06:51:50.220Z,6.03
2022-09-12T06:56:54.397Z,5.13
2022-09-12T07:01:57.334Z,4.18
2022-09-12T07:07:01.371Z,6.13
2022-09-12T07:12:06.253Z,6.32
2022-09-12T07:17:09.467Z,5.90
2022-09-12T07:22:12.597Z,3.63
2022-09-12T07:27:16.632Z,4.43
2022-09-12T07:32:19.270Z,8.10
2022-09-12T07:37:24.203Z,6.60
2022-09-12T07:42:28.239Z,2.67
2022-09-12T07:47:31.053Z,13.18
2022-09-12T07:52:33.734Z,2.53
2022-09-12T07:57:37.777Z,3.70
2022-09-12T08:02:40.427Z,3.75
2022-09-12T08:07:43.605Z,4.75
2022-09-12T08:12:47.766Z,3.45
2022-09-12T08:17:50.461Z,2.65
2022-09-12T08:22:53.158Z,3.45
2022-09-12T08:27:57.242Z,2.28
2022-09-12T08:33:00.398Z,2.88
2022-09-12T08:38:03.084Z,3.78
2022-09-12T08:43:09.101Z,2.22
2022-09-12T08:48:13.116Z,3.80
2022-09-12T08:53:17.623Z,2.50
2022-09-12T08:58:24.136Z,3.45
2022-09-12T09:03:31.470Z,2.15
2022-09-12T09:08:44.757Z,2.20
2022-09-12T09:14:14.992Z,2.30
2022-09-12T09:19:20.392Z,2.08
2022-09-12T09:24:25.125Z,2.22
2022-09-12T09:29:30.902Z,2.50
2022-09-12T09:34:33.780Z,3.83
2022-09-12T09:39:42.494Z,2.33
2022-09-12T09:44:49.109Z,2.40
2022-09-12T09:49:52.056Z,2.40
2022-09-12T09:54:57.598Z,2.50
2022-09-12T10:00:21.791Z,3.42
2022-09-12T10:05:24.644Z,2.70
2022-09-12T10:10:27.355Z,2.33
2022-09-12T10:15:34.043Z,3.75
2022-09-12T10:20:39.720Z,4.20
2022-09-12T10:25:42.486Z,2.50
2022-09-12T10:30:52.024Z,2.40
2022-09-12T10:35:56.815Z,3.22
2022-09-12T10:41:00.465Z,3.55
2022-09-12T10:46:18.745Z,2.47
2022-09-12T10:51:29.987Z,4.05
2022-09-12T10:56:33.808Z,2.53
2022-09-12T11:01:40.336Z,3.13
2022-09-12T11:06:48.894Z,2.70
2022-09-12T11:11:57.307Z,2.55
2022-09-12T11:17:04.264Z,2.60
2022-09-12T11:22:18.287Z,3.38
2022-09-12T11:27:30.146Z,2.40
2022-09-12T11:32:46.921Z,2.15
2022-09-12T11:38:00.377Z,2.70
2022-09-12T11:43:07.994Z,2.30
2022-09-12T11:48:15.633Z,2.53
2022-09-12T11:53:20.761Z,3.85
2022-09-12T11:58:26.089Z,2.55
2022-09-12T12:03:32.441Z,2.50
2022-09-12T12:08:41.023Z,2.60
2022-09-12T12:13:47.690Z,2.30
2022-09-12T12:18:54.904Z,2.90
2022-09-12T12:24:20.121Z,3.78
2022-09-12T12:29:41.517Z,3.00
2022-09-12T12:34:46.858Z,3.05
2022-09-12T12:40:01.128Z,2.88
2022-09-12T12:45:05.110Z,3.70
2022-09-12T12:50:13.445Z,3.65
2022-09-12T12:55:20.417Z,1.90
2022-09-12T13:00:40.735Z,2.40
2022-09-12T13:05:44.935Z,2.92
2022-09-12T13:10:52.212Z,2.70
2022-09-12T13:15:55.344Z,2.10
2022-09-12T13:21:02.593Z,2.58
2022-09-12T13:26:12.187Z,2.17
2022-09-12T13:31:19.068Z,2.72
2022-09-12T13:36:28.512Z,1.80
2022-09-12T13:41:41.731Z,1.85
2022-09-12T13:46:44.436Z,2.10
2022-09-12T13:51:52.771Z,1.70
2022-09-12T13:56:57.024Z,2.15
2022-09-12T14:01:59.754Z,1.95
2022-09-12T14:07:03.713Z,1.95
2022-09-12T14:12:18.341Z,1.88
2022-09-12T14:17:25.390Z,2.45
2022-09-12T14:22:38.825Z,1.58
2022-09-12T14:27:45.754Z,2.33
2022-09-12T14:33:03.393Z,2.30
2022-09-12T14:38:10.951Z,8.70
2022-09-12T14:43:21.262Z,3.30
2022-09-12T14:48:25.044Z,2.38
2022-09-12T14:53:32.881Z,2.30
2022-09-12T14:58:37.396Z,2.33
2022-09-12T15:03:51.927Z,1.70
2022-09-12T15:08:55.952Z,2.15
2022-09-12T15:14:00.118Z,2.55
2022-09-12T15:19:03.977Z,2.53
2022-09-12T15:24:10.273Z,1.80
2022-09-12T15:29:15.615Z,1.50
2022-09-12T15:34:19.261Z,1.80
2022-09-12T15:39:21.985Z,2.08
2022-09-12T15:44:27.177Z,1.80
2022-09-12T15:49:30.090Z,2.10
2022-09-12T15:54:33.106Z,2.35
2022-09-12T15:59:37.425Z,3.92
2022-09-12T16:04:40.281Z,1.75
2022-09-12T16:09:44.041Z,3.75
2022-09-12T16:14:48.452Z,2.35
2022-09-12T16:19:51.276Z,4.20
2022-09-12T16:24:54.148Z,2.50
2022-09-12T16:29:58.530Z,2.60
2022-09-12T16:35:01.992Z,3.72
2022-09-12T16:40:05.654Z,3.15
2022-09-12T16:45:10.537Z,3.67
2022-09-12T16:50:14.258Z,2.20
2022-09-12T16:55:17.107Z,3.63
2022-09-12T17:00:21.443Z,2.80
2022-09-12T17:05:24.422Z,3.05
2022-09-12T17:10:27.920Z,3.05
2022-09-12T17:15:32.069Z,2.97
2022-09-12T17:20:36.394Z,4.22
2022-09-12T17:25:39.161Z,3.60
2022-09-12T17:30:43.269Z,5.03
2022-09-12T17:35:45.962Z,4.53
2022-09-12T17:40:59.574Z,4.25
2022-09-12T17:46:05.073Z,4.00
2022-09-12T17:51:10.164Z,4.82
2022-09-12T17:56:12.984Z,3.63
2022-09-12T18:01:34.557Z,4.47
2022-09-12T18:06:37.829Z,4.15
2022-09-12T18:11:43.991Z,5.68
2022-09-12T18:16:48.603Z,7.93
2022-09-12T18:21:51.226Z,5.97
2022-09-12T18:32:02.671Z,6.30
2022-09-12T18:37:07.240Z,4.90
2022-09-12T18:42:09.908Z,5.68
2022-09-12T18:47:14.344Z,6.97
2022-09-12T18:52:19.020Z,9.80
2022-09-12T18:57:21.950Z,11.52
2022-09-12T19:02:28.878Z,7.80
2022-09-12T19:07:32.770Z,6.80
2022-09-12T19:12:36.201Z,10.20
2022-09-12T19:22:43.959Z,8.15
2022-09-12T19:27:46.711Z,7.95
2022-09-12T19:32:49.509Z,7.80
2022-09-12T19:37:53.716Z,10.17
2022-09-12T19:42:56.465Z,19.60
2022-09-12T19:47:59.534Z,16.97
2022-09-12T19:53:04.029Z,8.52
2022-09-12T19:58:06.778Z,8.13
2022-09-12T20:03:09.634Z,7.03
2022-09-12T20:08:13.721Z,10.37
2022-09-12T20:13:16.404Z,9.63
2022-09-12T20:18:19.035Z,9.27
2022-09-12T20:23:25.522Z,14.88
2022-09-12T20:28:28.608Z,9.00
2022-09-12T20:33:32.229Z,8.90
2022-09-12T20:38:38.870Z,20.92
2022-09-12T20:43:43.087Z,9.50
2022-09-12T20:48:46.950Z,8.70
2022-09-12T20:53:50.591Z,7.90
2022-09-12T20:58:55.087Z,9.18
2022-09-12T21:03:58.138Z,8.95
2022-09-12T21:09:00.948Z,8.60
2022-09-12T21:14:05.603Z,8.60
2022-09-12T21:19:12.515Z,8.45
2022-09-12T21:24:15.458Z,10.20
2022-09-12T21:29:19.644Z,7.17
2022-09-12T21:34:22.693Z,8.40
2022-09-12T21:39:25.471Z,5.47
2022-09-12T21:44:29.497Z,8.55
2022-09-12T21:49:32.837Z,7.80
2022-09-12T21:54:44.828Z,7.68
2022-09-12T21:59:48.863Z,7.43
2022-09-12T22:04:51.617Z,9.70
2022-09-12T22:09:54.310Z,9.57
2022-09-12T22:14:58.445Z,8.57
2022-09-12T22:20:01.129Z,12.00
2022-09-12T22:25:04.116Z,8.23
2022-09-12T22:30:09.249Z,7.10
2022-09-12T22:35:11.982Z,7.07
2022-09-12T22:40:15.287Z,7.18
2022-09-12T22:45:20.342Z,5.28
2022-09-12T22:50:23.137Z,7.63
2022-09-12T22:55:26.326Z,5.93
2022-09-12T23:00:30.836Z,5.13
2022-09-12T23:05:37.642Z,5.60
2022-09-12T23:10:45.079Z,4.80
2022-09-12T23:15:49.943Z,5.75
2022-09-12T23:20:59.725Z,5.57
2022-09-12T23:26:03.551Z,4.85
2022-09-12T23:31:09.653Z,6.93
2022-09-12T23:36:14.569Z,5.60
2022-09-12T23:41:18.577Z,5.70
2022-09-12T23:46:22.690Z,4.38
2022-09-12T23:51:25.435Z,6.32
2022-09-12T23:56:28.614Z,6.70
